Time;durP1;ratioP1;P1;durP2;ratioP2;P2;SDS_P1;SDS_P2;PMS_P1;PMS_P2;Temp;Humidity;BMP_temperature;BMP_pressure;BME280_temperature;BME280_humidity;BME280_pressure;Samples;Min_cycle;Max_cycle;Signal;HPM_P1;HPM_P2
2023/04/19 00:00:33;;;;;;;7.90;4.47;;;10.00;73.70;;;9.29;45.31;102274.75;5094148;28;20641;-74
2023/04/19 00:03:05;;;;;;;7.40;3.90;;;9.90;73.30;;;9.30;46.69;102273.81;5094324;28;20209;-74
2023/04/19 00:05:38;;;;;;;4.40;3.80;;;10.00;74.80;;;9.35;47.27;102278.81;5094396;28;20184;-75
2023/04/19 00:08:10;;;;;;;5.67;4.20;;;10.00;77.00;;;9.30;46.61;102276.47;5094373;28;20220;-75
2023/04/19 00:10:43;;;;;;;4.73;3.83;;;10.00;76.20;;;9.23;46.88;102283.25;5094271;28;20197;-74
2023/04/19 00:13:15;;;;;;;7.33;3.73;;;9.90;76.60;;;8.99;46.11;102275.22;5094916;28;20189;-74
2023/04/19 00:15:47;;;;;;;6.50;3.50;;;9.70;73.90;;;9.04;46.00;102277.56;5093967;28;20555;-74
2023/04/19 00:18:18;;;;;;;6.10;3.83;;;9.70;75.00;;;9.00;46.60;102271.59;5094133;28;20226;-75
2023/04/19 00:20:50;;;;;;;5.70;3.73;;;9.60;75.30;;;9.09;48.53;102276.25;5094266;28;20646;-74
2023/04/19 00:23:22;;;;;;;4.77;3.20;;;9.70;78.90;;;8.98;48.03;102267.31;5094183;28;20216;-74
2023/04/19 00:25:55;;;;;;;6.47;3.70;;;9.60;77.50;;;8.90;48.00;102272.38;5094136;28;20193;-74
2023/04/19 00:28:27;;;;;;;4.60;3.73;;;9.60;77.40;;;8.79;48.44;102267.81;5093589;28;20229;-75
2023/04/19 00:30:58;;;;;;;5.27;3.40;;;9.40;78.40;;;8.58;48.33;102269.38;5093902;28;20192;-74
2023/04/19 00:33:30;;;;;;;5.60;3.47;;;9.30;78.30;;;8.49;48.91;102280.72;5094054;28;20233;-74
2023/04/19 00:36:02;;;;;;;3.97;3.30;;;9.20;79.30;;;8.59;50.20;102276.44;5093675;28;20318;-74
2023/04/19 00:38:34;;;;;;;7.70;3.50;;;9.20;81.00;;;8.34;48.72;102279.13;5093990;28;20254;-74
2023/04/19 00:41:07;;;;;;;5.13;3.77;;;9.10;80.10;;;8.29;49.86;102290.13;5093891;28;20193;-74
2023/04/19 00:43:39;;;;;;;8.93;3.70;;;9.00;81.40;;;8.30;49.81;102291.81;5093861;28;20185;-74
2023/04/19 00:46:11;;;;;;;4.80;3.63;;;9.00;80.90;;;8.49;49.55;102288.72;5093862;28;20204;-74
2023/04/19 00:48:43;;;;;;;6.13;3.80;;;9.10;82.10;;;8.39;48.88;102291.16;5093415;28;20224;-74
2023/04/19 00:51:15;;;;;;;6.10;3.77;;;9.00;80.30;;;8.28;49.58;102280.41;5093797;28;20192;-74
2023/04/19 00:53:48;;;;;;;6.70;3.90;;;8.90;80.90;;;8.15;50.14;102287.53;5093745;28;20193;-74
2023/04/19 00:56:22;;;;;;;6.67;3.93;;;8.80;81.60;;;8.14;49.91;102283.16;5093421;28;20649;-75
2023/04/19 00:58:55;;;;;;;7.63;3.67;;;8.80;81.80;;;8.00;50.22;102277.94;5093216;28;20228;-75
2023/04/19 01:01:27;;;;;;;4.63;3.50;;;8.70;81.40;;;8.07;52.06;102281.88;5093605;28;20197;-75
2023/04/19 01:04:00;;;;;;;6.60;3.83;;;8.60;83.80;;;7.94;50.97;102281.03;5093660;28;20189;-74
2023/04/19 01:06:33;;;;;;;5.50;3.60;;;8.60;83.00;;;7.89;50.67;102278.69;5093671;28;20196;-74
2023/04/19 01:09:05;;;;;;;8.27;4.00;;;8.60;83.80;;;7.97;51.49;102288.81;5093575;28;20235;-74
2023/04/19 01:11:38;;;;;;;4.97;3.77;;;8.60;83.80;;;7.93;51.52;102282.00;5093732;28;20193;-75
2023/04/19 01:14:12;;;;;;;6.00;3.67;;;8.50;84.00;;;8.00;51.73;102286.78;5093250;28;20651;-74
2023/04/19 01:16:44;;;;;;;5.87;3.93;;;8.60;85.20;;;7.88;51.08;102276.09;5093495;28;20287;-74
2023/04/19 01:19:17;;;;;;;4.17;3.63;;;8.50;84.50;;;7.89;51.60;102280.47;5093364;28;20224;-75
2023/04/19 01:21:49;;;;;;;5.10;3.80;;;8.60;85.10;;;7.80;51.87;102278.47;5093445;28;20189;-75
2023/04/19 01:24:22;;;;;;;5.73;3.80;;;8.40;84.80;;;7.66;52.79;102268.75;5093566;28;20193;-75
2023/04/19 01:26:54;;;;;;;5.80;3.70;;;8.30;85.50;;;7.47;52.48;102278.91;5093560;28;20538;-75
2023/04/19 01:29:25;;;;;;;4.87;3.37;;;8.20;85.50;;;7.54;54.01;102275.75;5093455;28;20185;-74
2023/04/19 01:31:57;;;;;;;6.40;3.83;;;8.20;87.50;;;7.36;53.52;102271.66;5093295;28;20192;-74
2023/04/19 01:34:29;;;;;;;4.83;3.63;;;8.00;86.90;;;7.43;54.40;102280.94;5093297;28;20189;-74
2023/04/19 01:37:01;;;;;;;5.23;3.50;;;8.00;88.30;;;7.36;53.67;102277.00;5092985;28;20185;-74
2023/04/19 01:39:34;;;;;;;4.97;3.23;;;8.00;87.40;;;7.39;54.33;102282.13;5094417;28;20200;-74
2023/04/19 01:42:06;;;;;;;8.73;4.00;;;8.00;89.10;;;7.36;53.90;102282.31;5096998;28;20205;-74
2023/04/19 01:44:38;;;;;;;5.53;3.60;;;8.00;87.50;;;7.18;54.26;102272.03;5096831;28;20189;-74
2023/04/19 01:47:10;;;;;;;4.83;3.23;;;7.90;88.30;;;7.43;55.04;102277.44;5096979;28;20200;-73
2023/04/19 01:49:41;;;;;;;5.93;3.43;;;8.10;89.60;;;7.40;55.05;102275.81;5097934;28;20185;-74
2023/04/19 01:52:13;;;;;;;6.40;3.70;;;8.10;89.20;;;7.35;54.91;102269.94;5097637;28;20188;-74
2023/04/19 01:54:46;;;;;;;5.90;3.47;;;8.00;89.10;;;7.31;55.21;102268.44;5098144;28;20195;-73
2023/04/19 01:57:18;;;;;;;5.13;3.47;;;7.90;89.60;;;7.22;54.58;102274.38;5097129;28;20573;-73
2023/04/19 01:59:50;;;;;;;6.13;3.70;;;7.90;89.30;;;7.14;55.01;102266.03;5097054;28;20575;-74
2023/04/19 02:02:22;;;;;;;6.03;3.60;;;7.80;89.70;;;7.21;55.31;102261.16;5096992;28;20213;-74
2023/04/19 02:04:54;;;;;;;5.37;3.50;;;7.90;90.10;;;7.20;55.97;102254.97;5096902;28;20250;-74
2023/04/19 02:07:27;;;;;;;4.50;3.60;;;7.90;90.20;;;7.23;55.71;102260.09;5096794;28;20259;-74
2023/04/19 02:10:00;;;;;;;4.60;3.80;;;7.80;90.40;;;7.13;56.17;102259.00;5096540;28;20193;-75
2023/04/19 02:12:33;;;;;;;4.90;3.37;;;7.70;90.30;;;7.10;55.33;102261.88;5096709;28;20185;-75
2023/04/19 02:15:06;;;;;;;5.50;3.60;;;7.80;90.30;;;7.16;55.93;102258.78;5096305;28;20559;-75
2023/04/19 02:17:39;;;;;;;6.10;3.83;;;7.80;90.40;;;7.01;55.80;102266.00;5096345;28;20327;-74
2023/04/19 02:20:11;;;;;;;6.60;3.30;;;7.60;90.40;;;6.93;56.30;102257.66;5097228;28;20242;-75
2023/04/19 02:22:43;;;;;;;7.50;3.70;;;7.60;90.60;;;6.77;56.81;102264.94;5096326;28;20624;-74
2023/04/19 02:25:18;;;;;;;7.50;3.77;;;7.50;90.80;;;6.74;56.79;102272.25;5096245;28;20213;-74
2023/04/19 02:27:49;;;;;;;4.57;3.33;;;7.40;90.90;;;6.78;57.46;102265.78;5096157;28;20220;-74
2023/04/19 02:30:22;;;;;;;5.63;3.47;;;7.40;91.30;;;6.74;57.52;102266.94;5096350;28;20192;-74
2023/04/19 02:32:54;;;;;;;6.20;3.20;;;7.40;91.30;;;6.70;57.24;102266.28;5096396;28;20253;-74
2023/04/19 02:35:26;;;;;;;5.93;3.43;;;7.40;91.30;;;6.60;56.97;102270.47;5095827;28;20556;-75
2023/04/19 02:37:59;;;;;;;5.90;3.50;;;7.30;91.20;;;6.55;57.38;102273.41;5096018;28;20229;-75
2023/04/19 02:40:32;;;;;;;7.97;3.63;;;7.20;91.40;;;6.61;58.46;102272.16;5096022;28;20189;-74
2023/04/19 02:43:05;;;;;;;8.63;3.57;;;7.30;91.60;;;6.56;58.05;102268.97;5095886;28;20216;-74
2023/04/19 02:45:37;;;;;;;5.50;3.33;;;7.20;91.60;;;6.51;57.88;102266.56;5096224;28;20197;-74
2023/04/19 02:48:09;;;;;;;6.40;3.20;;;7.20;91.70;;;6.58;58.22;102267.03;5095746;28;20293;-74
2023/04/19 02:50:42;;;;;;;9.27;3.60;;;7.20;91.80;;;6.55;58.07;102273.41;5095279;28;20197;-74
2023/04/19 02:53:14;;;;;;;4.27;2.90;;;7.30;91.80;;;6.46;57.82;102268.69;5095455;28;20641;-74
2023/04/19 02:55:47;;;;;;;6.67;3.80;;;7.20;91.50;;;6.47;57.94;102265.06;5095662;28;20689;-74
2023/04/19 02:58:18;;;;;;;4.63;3.20;;;7.10;92.00;;;6.49;58.48;102265.84;5095704;28;20719;-74
2023/04/19 03:00:50;;;;;;;6.03;3.67;;;7.10;92.00;;;6.46;58.22;102274.00;5095571;28;20212;-74
2023/04/19 03:03:22;;;;;;;4.03;3.40;;;7.10;91.80;;;6.38;58.53;102264.78;5095399;28;20217;-75
2023/04/19 03:05:55;;;;;;;5.00;3.43;;;7.00;91.90;;;6.22;58.65;102264.91;5095667;28;20185;-74
2023/04/19 03:08:26;;;;;;;7.77;3.77;;;6.90;92.30;;;6.24;58.79;102267.44;5095502;28;20242;-75
2023/04/19 03:11:00;;;;;;;6.67;3.47;;;7.00;92.30;;;6.20;59.19;102264.13;5095566;28;20200;-75
2023/04/19 03:13:32;;;;;;;4.53;2.87;;;6.90;92.20;;;6.19;59.26;102267.75;5095791;28;20189;-74
2023/04/19 03:16:03;;;;;;;5.47;3.40;;;6.80;92.30;;;6.22;59.48;102264.91;5095584;28;20189;-74
2023/04/19 03:18:36;;;;;;;4.30;3.20;;;6.90;92.40;;;6.23;59.43;102265.75;5095488;28;20315;-74
2023/04/19 03:21:08;;;;;;;4.37;2.97;;;6.90;92.60;;;6.11;59.36;102259.38;5095164;28;20680;-75
2023/04/19 03:23:40;;;;;;;6.00;3.83;;;6.80;92.50;;;6.02;59.33;102257.31;5095671;28;20213;-74
2023/04/19 03:26:13;;;;;;;6.13;3.20;;;6.70;92.40;;;6.13;59.37;102257.47;5095409;28;20193;-74
2023/04/19 03:28:45;;;;;;;8.50;3.30;;;6.90;92.70;;;6.08;59.71;102264.91;5095236;28;20229;-74
2023/04/19 03:31:17;;;;;;;6.30;3.23;;;6.80;92.70;;;6.05;59.96;102251.81;5095167;28;20193;-74
2023/04/19 03:33:49;;;;;;;5.87;3.73;;;6.70;92.80;;;6.03;60.12;102249.22;5094914;28;20185;-74
2023/04/19 03:36:21;;;;;;;5.27;3.00;;;6.70;93.00;;;6.08;60.21;102244.50;5095885;28;20529;-74
2023/04/19 03:38:53;;;;;;;4.77;3.50;;;6.70;93.00;;;6.06;59.97;102248.19;5095357;28;20220;-75
2023/04/19 03:41:28;;;;;;;5.50;3.13;;;6.70;92.80;;;6.05;60.07;102244.69;5095039;28;20192;-74
2023/04/19 03:44:00;;;;;;;5.67;3.30;;;6.70;92.80;;;6.10;60.46;102245.22;5094946;28;20257;-74
2023/04/19 03:46:31;;;;;;;6.73;3.17;;;6.80;93.10;;;6.11;60.28;102246.09;5095095;28;20189;-74
2023/04/19 03:49:03;;;;;;;6.80;3.67;;;6.70;92.90;;;6.10;60.25;102231.94;5094916;28;20278;-75
2023/04/19 03:51:35;;;;;;;4.27;3.87;;;6.80;93.10;;;6.07;60.41;102239.25;5094937;28;20193;-74
2023/04/19 03:54:08;;;;;;;5.90;3.33;;;6.80;93.10;;;6.02;60.61;102244.88;5094722;28;20203;-74
2023/04/19 03:56:41;;;;;;;5.30;3.17;;;6.60;93.10;;;6.04;60.81;102242.09;5094885;28;20200;-74
2023/04/19 03:59:13;;;;;;;5.43;3.30;;;6.70;93.30;;;6.09;60.45;102240.03;5094667;28;20243;-74
2023/04/19 04:01:46;;;;;;;4.27;3.10;;;6.70;93.20;;;6.08;60.57;102238.31;5093814;28;20193;-74
2023/04/19 04:04:17;;;;;;;4.10;2.93;;;6.70;93.20;;;5.87;61.20;102248.47;5094922;28;20230;-74
2023/04/19 04:06:52;;;;;;;5.90;3.30;;;6.50;93.30;;;5.83;61.05;102241.56;5094399;28;20275;-74
2023/04/19 04:09:25;;;;;;;7.83;3.60;;;6.50;93.40;;;5.89;61.77;102243.06;5094537;28;20193;-74
2023/04/19 04:11:58;;;;;;;4.27;3.00;;;6.60;93.70;;;5.85;61.39;102233.53;5094545;28;20202;-75
2023/04/19 04:14:30;;;;;;;4.87;2.97;;;6.50;93.60;;;5.90;61.20;102237.63;5094139;28;20555;-74
2023/04/19 04:17:03;;;;;;;4.10;2.97;;;6.60;93.50;;;5.98;61.09;102240.69;5094057;28;20196;-74
2023/04/19 04:19:35;;;;;;;4.87;2.90;;;6.70;93.50;;;5.98;61.30;102238.03;5094307;28;20197;-74
2023/04/19 04:22:09;;;;;;;4.07;3.13;;;6.60;93.60;;;5.98;61.28;102245.16;5094284;28;20189;-74
2023/04/19 04:24:43;;;;;;;7.47;3.07;;;6.60;93.50;;;5.99;61.45;102241.56;5094026;28;20220;-74
2023/04/19 04:27:19;;;;;;;5.67;3.17;;;6.70;93.70;;;5.94;61.25;102233.00;5094662;28;20189;-74
2023/04/19 04:29:51;;;;;;;6.77;3.70;;;6.60;93.60;;;5.84;61.47;102237.13;5094082;28;20189;-73
2023/04/19 04:32:22;;;;;;;10.13;5.13;;;6.50;93.60;;;5.90;61.65;102236.78;5094109;28;20200;-74
2023/04/19 04:34:54;;;;;;;6.97;3.90;;;6.60;93.80;;;5.92;61.58;102242.88;5093996;28;20544;-74
2023/04/19 04:37:26;;;;;;;6.00;3.00;;;6.60;93.70;;;5.95;61.56;102242.69;5093940;28;20232;-74
2023/04/19 04:39:58;;;;;;;6.50;3.53;;;6.70;94.20;;;5.85;61.63;102244.16;5094192;28;20185;-74
2023/04/19 04:42:31;;;;;;;4.90;2.90;;;6.50;93.80;;;5.74;61.86;102238.63;5094127;28;20193;-74
2023/04/19 04:45:03;;;;;;;6.40;3.20;;;6.40;93.90;;;5.69;61.90;102241.56;5093833;28;20216;-74
2023/04/19 04:47:36;;;;;;;8.13;3.80;;;6.40;93.80;;;5.70;62.42;102245.06;5094057;28;20231;-74
2023/04/19 04:50:10;;;;;;;4.77;2.90;;;6.40;94.20;;;5.75;62.17;102249.19;5093563;28;20609;-74
2023/04/19 04:52:42;;;;;;;4.93;3.27;;;6.50;94.20;;;5.76;62.02;102242.91;5094076;28;20200;-74
2023/04/19 04:55:14;;;;;;;5.87;3.20;;;6.50;94.10;;;5.80;62.03;102246.22;5094288;28;20184;-74
2023/04/19 04:57:47;;;;;;;4.83;3.13;;;6.50;94.20;;;5.74;62.42;102246.59;5094026;28;20235;-74
2023/04/19 05:00:20;;;;;;;4.73;3.50;;;6.40;94.20;;;5.78;62.63;102250.78;5093743;28;20212;-74
2023/04/19 05:02:52;;;;;;;7.43;3.07;;;6.50;94.40;;;5.73;63.15;102244.88;5094203;28;20228;-74
2023/04/19 05:05:23;;;;;;;6.80;3.30;;;6.40;94.50;;;5.68;63.21;102247.84;5093869;28;20224;-74
2023/04/19 05:07:55;;;;;;;4.17;3.17;;;6.40;94.60;;;5.54;63.68;102243.34;5093592;28;20224;-74
2023/04/19 05:10:27;;;;;;;6.90;3.10;;;6.30;94.70;;;5.55;63.94;102236.22;5093849;28;20189;-74
2023/04/19 05:13:03;;;;;;;4.90;3.10;;;6.30;94.90;;;5.67;63.90;102242.59;5094279;28;20185;-74
2023/04/19 05:15:35;;;;;;;6.33;3.43;;;6.40;95.00;;;5.68;64.14;102252.28;5097503;28;20192;-74
2023/04/19 05:18:07;;;;;;;5.63;3.07;;;6.40;95.00;;;5.67;63.77;102251.44;5097762;28;20238;-74
2023/04/19 05:20:39;;;;;;;5.90;3.23;;;6.40;94.90;;;5.70;64.04;102247.72;5097756;28;20196;-74
2023/04/19 05:23:11;;;;;;;5.13;2.90;;;6.40;95.00;;;5.54;64.47;102242.50;5097694;28;20193;-74
2023/04/19 05:25:43;;;;;;;6.80;3.40;;;6.30;95.00;;;5.50;64.33;102233.00;5097939;28;20220;-74
2023/04/19 05:28:16;;;;;;;5.10;2.70;;;6.20;94.90;;;5.50;64.75;102244.47;5097559;28;20224;-74
2023/04/19 05:30:48;;;;;;;4.97;3.23;;;6.20;95.20;;;5.50;65.01;102244.47;5097722;28;20191;-74
2023/04/19 05:33:20;;;;;;;6.27;3.07;;;6.20;95.40;;;5.49;64.80;102248.06;5097434;28;20196;-74
2023/04/19 05:35:52;;;;;;;6.30;3.20;;;6.30;95.20;;;5.53;63.90;102244.28;5097178;28;20637;-74
2023/04/19 05:38:24;;;;;;;6.53;3.13;;;6.40;95.10;;;5.55;64.44;102242.38;5097470;28;20231;-74
2023/04/19 05:40:56;;;;;;;7.20;3.23;;;6.30;95.00;;;5.60;64.33;102244.78;5097168;28;20197;-74
2023/04/19 05:43:29;;;;;;;6.87;3.10;;;6.40;95.20;;;5.61;64.12;102242.03;5097318;28;20189;-74
2023/04/19 05:46:01;;;;;;;6.80;3.00;;;6.40;95.10;;;5.65;64.42;102245.34;5097192;28;20208;-74
2023/04/19 05:48:33;;;;;;;6.97;2.87;;;6.50;95.10;;;5.66;64.21;102240.88;5096861;28;20256;-74
2023/04/19 05:51:05;;;;;;;5.13;3.00;;;6.50;94.90;;;5.61;64.17;102241.19;5097335;28;20205;-74
2023/04/19 05:53:37;;;;;;;9.90;3.90;;;6.40;94.90;;;5.70;64.69;102243.28;5097090;28;20185;-74
2023/04/19 05:56:10;;;;;;;3.97;2.73;;;6.50;95.10;;;5.80;64.36;102235.59;5097330;28;20196;-74
2023/04/19 05:58:43;;;;;;;5.93;2.90;;;6.60;95.10;;;5.82;64.27;102239.03;5096609;28;20248;-74
2023/04/19 06:01:15;;;;;;;6.00;3.27;;;6.70;95.10;;;5.83;63.85;102235.41;5096726;28;20597;-74
2023/04/19 06:03:51;;;;;;;8.47;3.20;;;6.60;94.80;;;5.88;63.86;102233.38;5096884;28;20288;-74
2023/04/19 06:06:26;;;;;;;5.73;2.60;;;6.70;95.20;;;5.96;64.35;102239.91;5096592;28;20565;-74
2023/04/19 06:08:58;;;;;;;7.60;3.27;;;6.80;95.10;;;5.96;63.61;102231.94;5096686;28;20228;-74
2023/04/19 06:11:30;;;;;;;7.93;2.73;;;6.80;94.70;;;5.97;62.65;102233.66;5096549;28;20280;-74
2023/04/19 06:14:16;;;;;;;4.13;2.80;;;6.80;94.30;;;6.04;63.42;102231.47;5096476;28;20626;-74
2023/04/19 06:16:48;;;;;;;7.50;2.97;;;6.80;94.60;;;6.06;63.45;102232.25;5096762;28;20191;-74
2023/04/19 06:19:20;;;;;;;8.97;3.20;;;6.90;94.50;;;6.10;63.21;102229.28;5096478;28;20235;-74
2023/04/19 06:21:52;;;;;;;5.83;2.80;;;6.90;94.50;;;6.15;63.00;102226.34;5096550;28;20242;-74
2023/04/19 06:24:24;;;;;;;4.43;2.57;;;7.00;94.60;;;6.22;63.73;102226.81;5096386;28;20208;-74
2023/04/19 06:26:56;;;;;;;5.00;2.60;;;7.00;94.60;;;6.26;61.57;102226.53;5096292;28;20196;-74
2023/04/19 06:29:29;;;;;;;4.60;2.43;;;7.10;93.70;;;6.30;61.37;102225.38;5096431;28;20193;-74
2023/04/19 06:32:01;;;;;;;5.00;2.30;;;7.10;93.40;;;6.33;60.87;102217.22;5096404;28;20204;-74
2023/04/19 06:34:33;;;;;;;3.93;2.50;;;7.20;93.10;;;6.36;60.27;102224.16;5096064;28;20626;-74
2023/04/19 06:37:05;;;;;;;6.97;2.50;;;7.20;93.10;;;6.44;62.16;102227.16;5096463;28;20189;-75
2023/04/19 06:39:37;;;;;;;6.90;2.93;;;7.30;93.80;;;6.51;62.18;102223.16;5096346;28;20200;-75
2023/04/19 06:42:09;;;;;;;5.00;2.40;;;7.30;93.80;;;6.49;59.63;102220.59;5095875;28;20569;-75
2023/04/19 06:44:42;;;;;;;3.30;2.40;;;7.30;92.40;;;6.52;58.51;102220.41;5095782;28;20581;-75
2023/04/19 06:47:14;;;;;;;3.53;2.23;;;7.30;92.10;;;6.56;60.24;102221.91;5095980;28;20185;-74
2023/04/19 06:49:46;;;;;;;4.10;2.50;;;7.40;92.60;;;6.62;60.03;102212.69;5096096;28;20200;-74
2023/04/19 06:52:18;;;;;;;3.20;2.50;;;7.40;92.60;;;6.62;60.60;102216.19;5096082;28;20208;-74
2023/04/19 06:54:51;;;;;;;4.60;3.23;;;7.50;92.80;;;6.76;59.96;102206.47;5095912;28;20284;-72
2023/04/19 06:57:25;;;;;;;4.33;2.77;;;7.60;92.80;;;6.76;59.07;102206.47;5096011;28;20228;-74
2023/04/19 06:59:59;;;;;;;7.47;2.63;;;7.60;92.30;;;6.82;60.43;102209.56;5095656;28;20224;-74
2023/04/19 07:02:31;;;;;;;7.57;2.70;;;7.60;93.00;;;6.86;59.91;102207.56;5095902;28;20196;-74
2023/04/19 07:05:03;;;;;;;6.33;2.63;;;7.70;92.90;;;6.94;59.50;102210.59;5095707;28;20236;-74
2023/04/19 07:07:36;;;;;;;8.10;2.60;;;7.70;92.70;;;7.00;59.72;102204.84;5095587;28;20250;-75
2023/04/19 07:10:11;;;;;;;4.33;2.80;;;7.80;92.50;;;7.04;59.64;102203.69;5095936;28;20254;-75
2023/04/19 07:12:43;;;;;;;5.77;2.60;;;7.80;92.60;;;7.10;57.91;102203.28;5095695;28;20192;-75
2023/04/19 07:15:17;;;;;;;4.03;2.43;;;7.90;91.90;;;7.13;59.50;102205.72;5095256;28;20555;-74
2023/04/19 07:17:49;;;;;;;6.40;2.67;;;7.90;92.10;;;7.22;59.00;102198.94;5095401;28;20225;-74
2023/04/19 07:20:24;;;;;;;2.90;2.50;;;8.00;92.10;;;7.27;58.70;102203.00;5095389;28;20304;-75
2023/04/19 07:22:55;;;;;;;5.53;2.80;;;8.10;91.80;;;7.33;60.01;102197.25;5095049;28;20667;-74
2023/04/19 07:25:27;;;;;;;3.30;2.43;;;8.20;92.60;;;7.42;59.45;102195.78;5094894;28;20220;-73
2023/04/19 07:27:59;;;;;;;5.13;2.70;;;8.20;92.40;;;7.48;57.51;102196.22;5095197;28;20233;-74
2023/04/19 07:30:32;;;;;;;5.13;2.80;;;8.30;91.30;;;7.56;56.61;102188.56;5095280;28;20192;-74
2023/04/19 07:33:07;;;;;;;3.23;2.60;;;8.40;90.90;;;7.64;55.39;102188.00;5095034;28;20633;-74
2023/04/19 07:35:40;;;;;;;4.97;2.47;;;8.40;90.30;;;7.78;54.96;102189.72;5095130;28;20185;-74
2023/04/19 07:38:12;;;;;;;4.00;2.50;;;8.50;89.90;;;7.76;55.87;102188.97;5093958;28;20231;-75
2023/04/19 07:40:44;;;;;;;4.40;2.60;;;8.50;90.50;;;7.84;56.70;102175.97;5094763;28;20189;-74
2023/04/19 07:43:16;;;;;;;6.37;2.70;;;8.70;90.50;;;7.94;55.14;102175.22;5094620;28;20196;-74
2023/04/19 07:45:49;;;;;;;5.13;2.47;;;8.70;90.00;;;8.01;53.79;102183.63;5094829;28;20209;-74
2023/04/19 07:48:21;;;;;;;3.90;2.60;;;8.80;88.20;;;8.09;55.95;102170.59;5094880;28;20229;-74
2023/04/19 07:50:53;;;;;;;5.03;2.70;;;8.90;90.40;;;8.22;53.40;102171.41;5094718;28;20196;-74
2023/04/19 07:53:25;;;;;;;5.33;3.07;;;9.00;88.10;;;8.32;54.39;102174.31;5094951;28;20207;-74
2023/04/19 07:55:57;;;;;;;4.70;2.50;;;9.10;89.40;;;8.41;54.46;102163.84;5094986;28;20185;-74
2023/04/19 07:58:28;;;;;;;3.27;2.77;;;9.20;89.00;;;8.52;50.72;102155.03;5094435;28;20246;-75
2023/04/19 08:01:02;;;;;;;4.63;2.50;;;9.30;84.10;;;8.64;49.78;102159.47;5094610;28;20196;-74
2023/04/19 08:03:36;;;;;;;8.33;2.80;;;9.40;82.60;;;8.73;51.18;102149.94;5094522;28;20220;-75
2023/04/19 08:06:09;;;;;;;5.03;2.70;;;9.50;82.70;;;8.82;48.77;102150.09;5094356;28;20249;-74
2023/04/19 08:08:42;;;;;;;5.27;2.77;;;9.60;79.90;;;8.93;47.32;102152.81;5094606;28;20240;-74
2023/04/19 08:11:14;;;;;;;5.20;3.10;;;9.70;77.10;;;9.05;48.58;102151.03;5094443;28;20189;-73
2023/04/19 08:13:46;;;;;;;7.87;2.80;;;9.80;78.80;;;9.08;47.86;102150.78;5094349;28;20208;-74
2023/04/19 08:16:38;;;;;;;6.23;2.60;;;9.80;79.20;;;9.22;47.54;102147.91;5094289;28;20204;-74
2023/04/19 08:19:13;;;;;;;3.33;2.60;;;10.00;77.70;;;9.26;47.85;102144.03;5094412;28;20240;-74
2023/04/19 08:21:45;;;;;;;2.30;2.10;;;10.00;76.20;;;9.29;47.87;102142.94;5093923;28;20650;-74
2023/04/19 08:24:17;;;;;;;6.60;2.73;;;10.10;77.90;;;9.45;44.82;102143.50;5094199;28;20185;-74
2023/04/19 08:26:52;;;;;;;5.00;2.67;;;10.20;72.50;;;9.46;45.91;102142.50;5093810;28;20308;-74
2023/04/19 08:29:24;;;;;;;4.17;2.60;;;10.20;73.40;;;9.54;46.79;102143.63;5094307;28;20193;-74
2023/04/19 08:31:57;;;;;;;3.73;2.70;;;10.30;74.00;;;9.59;44.04;102133.41;5094246;28;20212;-75
2023/04/19 08:34:29;;;;;;;3.90;2.53;;;10.40;69.30;;;9.72;44.75;102136.00;5093761;28;20664;-75
2023/04/19 08:37:02;;;;;;;4.10;2.70;;;10.40;71.10;;;9.79;47.50;102131.00;5093888;28;20189;-75
2023/04/19 08:39:37;;;;;;;4.03;2.40;;;10.50;75.90;;;9.89;46.29;102127.47;5093920;28;20193;-75
2023/04/19 08:42:11;;;;;;;3.63;2.30;;;10.70;73.30;;;10.03;45.36;102131.72;5093631;28;20203;-74
2023/04/19 08:45:07;;;;;;;5.50;2.60;;;10.70;70.70;;;10.10;45.47;102127.59;5094231;28;20228;-74
2023/04/19 08:47:43;;;;;;;5.57;2.80;;;10.80;71.30;;;10.19;41.65;102124.19;5093475;28;20241;-74
2023/04/19 08:50:31;;;;;;;5.57;2.70;;;10.90;65.00;;;10.26;42.80;102120.03;5093761;28;20185;-75
2023/04/19 08:53:20;;;;;;;6.87;2.63;;;11.00;63.90;;;10.34;40.56;102128.31;5093790;28;20296;-74
2023/04/19 08:55:58;;;;;;;6.03;2.57;;;11.10;62.70;;;10.40;39.12;102125.13;5093727;28;20273;-74
2023/04/19 08:58:33;;;;;;;7.97;2.73;;;11.10;59.00;;;10.51;39.86;102119.72;5093481;28;20243;-75
2023/04/19 09:01:25;;;;;;;4.07;2.57;;;11.20;59.90;;;10.58;41.86;102122.75;5094437;28;20226;-75
2023/04/19 09:04:10;;;;;;;3.30;2.40;;;11.30;62.30;;;10.75;41.62;102126.72;5093403;28;20535;-75
2023/04/19 09:07:01;;;;;;;2.77;2.30;;;11.40;64.70;;;10.77;39.08;102114.03;5093859;28;20281;-75
2023/04/19 09:09:34;;;;;;;3.50;2.47;;;11.50;57.20;;;10.86;38.74;102107.91;5093335;28;20214;-75
2023/04/19 09:12:22;;;;;;;5.47;2.47;;;11.50;57.10;;;10.91;38.11;102103.88;5093527;28;20197;-74
2023/04/19 09:14:55;;;;;;;3.63;2.63;;;11.60;56.90;;;11.09;36.39;102101.47;5093284;28;20552;-74
2023/04/19 09:17:30;;;;;;;3.23;2.40;;;11.80;55.40;;;11.09;36.65;102104.16;5093481;28;20224;-75
2023/04/19 09:20:05;;;;;;;2.77;2.37;;;11.70;53.20;;;11.11;35.76;102095.00;5093690;28;20189;-75
2023/04/19 09:22:37;;;;;;;3.17;2.27;;;11.80;52.60;;;11.17;37.01;102086.41;5093498;28;20189;-75
2023/04/19 09:25:23;;;;;;;3.50;2.30;;;11.80;53.80;;;11.39;38.72;102077.38;5093703;28;20200;-75
2023/04/19 09:28:17;;;;;;;3.57;2.17;;;12.00;55.80;;;11.46;35.95;102070.50;5094012;28;20274;-75
2023/04/19 09:30:50;;;;;;;2.83;2.10;;;12.10;52.80;;;11.53;37.90;102082.41;5093443;28;20193;-75
2023/04/19 09:33:39;;;;;;;3.53;2.30;;;12.30;54.00;;;11.59;37.29;102076.47;5093077;28;20567;-75
2023/04/19 09:36:27;;;;;;;3.43;2.20;;;12.30;51.70;;;11.58;34.50;102058.69;5093396;28;20189;-75
2023/04/19 09:39:00;;;;;;;4.00;2.30;;;12.30;50.60;;;11.70;34.74;102056.75;5093320;28;20236;-75
2023/04/19 09:41:34;;;;;;;4.83;2.77;;;12.40;51.10;;;11.83;35.07;102057.41;5093325;28;20193;-75
2023/04/19 09:44:19;;;;;;;3.17;2.40;;;12.50;50.90;;;11.89;35.65;102047.94;5093370;28;20291;-74
2023/04/19 09:46:58;;;;;;;2.87;2.30;;;12.60;52.20;;;11.98;36.40;102039.94;5092941;28;20677;-74
2023/04/19 09:49:33;;;;;;;6.97;2.33;;;12.60;53.00;;;12.05;35.64;102040.25;5093197;28;20197;-75
2023/04/19 09:52:21;;;;;;;5.00;2.53;;;12.60;52.40;;;12.06;37.41;102039.22;5093205;28;20204;-75
2023/04/19 09:54:54;;;;;;;3.47;2.40;;;12.70;54.00;;;12.17;35.23;102023.00;5093551;28;20185;-75
2023/04/19 09:57:26;;;;;;;4.07;2.60;;;12.80;51.80;;;12.25;36.06;102012.44;5093374;28;20237;-75
2023/04/19 09:59:58;;;;;;;6.10;2.57;;;12.90;52.10;;;12.45;37.12;102007.91;5093101;28;20227;-74
2023/04/19 10:02:35;;;;;;;4.00;2.20;;;13.10;53.90;;;12.70;36.49;102004.66;5097591;28;20197;-75
2023/04/19 10:05:10;;;;;;;4.93;2.17;;;13.30;53.90;;;12.79;38.19;101987.66;5096642;28;20302;-75
2023/04/19 10:07:55;;;;;;;6.03;2.27;;;13.40;55.00;;;12.83;34.49;101998.97;5096034;28;20243;-74
2023/04/19 10:10:32;;;;;;;4.80;2.50;;;13.50;50.00;;;12.89;33.94;101984.94;5096790;28;20602;-74
2023/04/19 10:13:22;;;;;;;2.10;1.90;;;13.50;49.20;;;13.01;32.00;101981.09;5096599;28;20197;-74
2023/04/19 10:15:57;;;;;;;4.87;2.10;;;13.60;47.40;;;13.08;32.46;101976.84;5096688;28;20214;-74
2023/04/19 10:18:49;;;;;;;7.47;2.23;;;13.70;47.00;;;13.09;30.83;101976.69;5096295;28;20228;-74
2023/04/19 10:21:23;;;;;;;3.80;2.00;;;13.70;44.00;;;13.13;29.32;101974.56;5096471;28;20292;-74
2023/04/19 10:23:58;;;;;;;3.80;2.20;;;13.70;43.20;;;13.27;28.95;101960.66;5096031;28;20192;-75
2023/04/19 10:26:30;;;;;;;7.70;2.20;;;13.90;42.80;;;13.44;30.28;101969.78;5096349;28;20216;-74
2023/04/19 10:29:02;;;;;;;5.63;2.50;;;14.00;42.10;;;13.44;26.98;101967.94;5096398;28;20228;-74
2023/04/19 10:31:34;;;;;;;4.67;2.27;;;14.10;39.80;;;13.56;27.67;101961.34;5096315;28;20189;-74
2023/04/19 10:34:08;;;;;;;6.97;2.40;;;14.20;41.20;;;13.57;30.77;101973.81;5096302;28;20189;-74
2023/04/19 10:36:44;;;;;;;5.43;2.30;;;14.10;41.30;;;13.57;30.78;101970.25;5096187;28;20189;-74
2023/04/19 10:39:43;;;;;;;4.63;2.37;;;14.10;42.70;;;13.65;28.96;101946.16;5096026;28;20228;-75
2023/04/19 10:42:14;;;;;;;8.43;2.33;;;14.20;40.40;;;13.89;30.66;101953.66;5096318;28;20201;-74
2023/04/19 10:45:24;;;;;;;3.17;2.10;;;14.40;44.50;;;13.73;26.81;101950.78;5096042;28;20189;-75
2023/04/19 10:47:56;;;;;;;6.37;2.10;;;14.40;39.40;;;13.84;28.07;101943.31;5087769;28;20232;-75
2023/04/19 10:50:28;;;;;;;3.70;2.23;;;14.40;40.20;;;13.98;28.24;101928.47;5095963;28;20193;-75